Rios, Texas
Current Conditions -  °F | °C
As of 1:15 AM on Sunday 23 Nov 2014 (Local Time) from KHBV Reporting Station
Haze Haze  
Wind Chill: 59°   Ceiling: Unl
Heat Index: 59°   Visibility: 5mi
Dew Point: 56°   Wind: 5mph
Humidity: 89%   Direction: 240°WSW
Pressure: 29.77"   Gusts: NA
Location:  27.5358°N, 98.3937°W
Report Text: KHBV 230715Z AUTO 24004KT 5SM BR CLR 15/13 A2977 RMK AO2 T01500132
Loading
Personal Weather Stations






























Interactive Weather Map New forecast layout! Learn more

10-Day Weather Forecast

Advertisements
Track Severe Weather on mobile